Página principal
METAR-TAF:

METAR-TAF

Aeroportos :

Shijiazhuang, China

latitude: 38-16-51N, longitude: 114-41-48E, altura: 233 m

Observação actual do tempo

O boletim foi feito há 55 minutos, às 13:00 UTC
Vento 4 kt de norte
Temperatura 14°C
Humidade 26%
Pressão 1019 hPa
Visibilidade 10 km ou mais
sem nuvens abaixo de 1500 metros e sem cumulonimbus

METAR: ZBSJ 221300Z 36002MPS CAVOK 14/M05 Q1019 NOSIG

Hora: 21:55 (13:55 UTC)

Previsão

O boletim foi feito há 6 horas e 43 minutos, às 07:12 UTC
Previsão válida de 22 às 12 UTC a 23 às 12 UTC
Vento 8 kt de oes-noroeste
Visibilidade: 5000 m
bruma

TAF: ZBSJ 220712Z 2212/2312 30004MPS 5000 HZ NSC TX20/2306Z TN05/2221Z

Observações e previsões do tempo de mais de 4000 aeroportos (mensagens METAR e TAF).

As estações disponíveis são os pontos amarelos e vermelhos sobre o mapa.

Mova o rato sobre o mapa para ver o nome da estação.

Depois clique no ponto para visualizar as observações e previsões meteorológicas.

Para alterar o mapa : clique nos botões verdes com uma cruz preta para aumentar o zoom; no botão verde com uma pitada de zoom; ou nas setas verdes para mapas adjacentes.


METAR-TAF: